الصفحة الرئيسية
METAR-TAF:

METAR-TAF

مطار :

أرخانغلسك, روسيا

دائرة عرض: 64-30N, خط طول: 040-44E, ارتفاع: 13 متر

مراقبة الطقس الحالي

تاريخ ووقت الإصدار 22 دقيقة قبل الساعة 08:00UTC
ريح 8 عقدة من الشرق/الجنوب الشرقي, الاتجاه يتراوح بين الشرق/الشمال الشرقي و الجنوب
درجة الحرارة 19°درجة مئوية
الرطوبة 32%
ضغط 1025 hPa
الرؤية 10 كم أو أكثر
الغيوم لا تقل 1500 م ولا وجود لمزنة ركامية السحاب الأسود

METAR: ULAA 220800Z 12004MPS 060V170 CAVOK 19/02 Q1025 R08/CLRD70 NOSIG RMK QFE768/1024

زمن: 11:22 (08:22 UTC)

توقعات

تاريخ ووقت الإصدار 3ساعات و 22 دقيقة قبل الساعة 05:00UTC
التوقعات صالحة من22 الساعة 06 UTC إلى 23 الساعة 06 UTC
ريح 10 عقدة من الشرق
الرؤية 10 كم أو أكثر
غيوم متفرقة على ارتفاع 2000 قدم
مؤقت
من 22 الساعة 06 UTC إلى 22 الساعة 15 UTC
ريح 8 عقدة من الجنوب الشرقي تتزايد حتى 21 عقدة
مؤقت
من 22 الساعة 15 UTC إلى 22 الساعة 21 UTC
ريح 6 عقدة من الجنوب/الجنوب الشرقي

TAF: ULAA 220500Z 2206/2306 08005MPS 9999 SCT020 TEMPO 2206/2215 13004G11MPS TEMPO 2215/2221 16003MPS

أرصاد الطقس والتوقعات من أكثر من 4000 مطار (تقارير الطقس للمطار METAR والتنبؤ بالطقس بالمطارTAF).

المحطات المتاحة هي النقط الصفراء والحمراء على الخريطة.

حرك المؤشر فوق النقطة لمعرفة اسم المحطة.

ثم انقر لمعرفة أرصاد وتوقعات الطقس.

لتغيير الخارطة: اضغط على الأزرار الخضراء مع رمز الصليب الأسود للتكبير. على الزر الأخضر مع شرطة للتصغير، أو على الأسهم الخضراء للخرائط المجاورة.


METAR-TAF: